AerodromSadržaj METAR izveštaja
LYBEMETAR LYBE 231530Z 33006KT CAVOK 28/16 Q1016 NOSIG=
LYBTMETAR LYBT 231530Z 30006KT 270V330 CAVOK 28/16 Q1016 NOSIG=
LYKVMETAR LYKV 231530Z 32005KT 290V350 9999 FEW050 28/15 Q1017 NOSIG=
LYNIMETAR LYNI 231530Z 31018KT 280V350 9999 FEW050 30/11 Q1015 NOSIG=
LYVRMETAR LYVR 231530Z 34010KT 9999 SCT043 28/14 Q1016 NOSIG=
LYUZMETAR LYUZ 231530Z 30005KT 260V330 9999 FEW025 21/14 Q1021=
LYPGMETAR LYPG 231530Z 36017KT CAVOK 34/10 Q1012 NOSIG=
LYTVMETAR LYTV 231530Z VRB03KT 9999 FEW060 33/14 Q1013 NOSIG=

Podaci učitani u: 2019-07-23 15:49:16 UTC

METAR, TAF, AIRMET, GAMET, SIGMET

Važna napomena: MET infоrmаciје nа оvim web strаnicаmа imајu infоrmаtivni kаrаktеr, nаmenjene su isključivo vаzduhоplоvnim kоrisnicima, nе smејu sе kоristiti zа bilо kоје kоmеrciјаlnе svrhе, i nе zаmеnjuјu dоkumеntаciјu zа lеt.